Llano — WDF9589 — position and weather

sailwx.info

Track history (hours):
 
Tides and Currents Weather Stations Pressure Air Temp Water Temp Dewpoint Dewpoint Depression Visibility Wind Speed Wind Dir Waves Ship Positions

Llano

Owner: Kirby Inland Marine LP, Houton, TX. More information available from US FCC via Universal Licensing System and Coast Guard Vessel Documentation Center.

Last reported at 2018-Feb-19 00:00 UTC. Time now 2018-Feb-19 00:10 UTC.
Position N 30°06' W 093°18'.

Length 118 m; draft 3.5 m.

Type: . MMSI: 367506740.

Date/timePositionNaut miles runAvg speedWind from/ knotsBaromVisibWave heightAir tempDewpointWater temp
2018-Feb-19 00:00N 30°06' W 093°18'0 0.1
2018-Feb-18 23:30N 30°06' W 093°18'0 0.1
2018-Feb-18 23:00N 30°06' W 093°18'2 3.2
2018-Feb-18 22:30N 30°05' W 093°20'3 5.2
2018-Feb-18 22:00N 30°04' W 093°22'4 7.2
2018-Feb-18 21:30N 30°04' W 093°26'3 6.8
2018-Feb-18 21:00N 30°04' W 093°30'4 7.1
2018-Feb-18 20:30N 30°04' W 093°34'3 6.8
2018-Feb-18 20:00N 30°04' W 093°38'4 7.5
2018-Feb-18 19:30N 30°03' W 093°43'4 7.4
2018-Feb-18 19:00N 30°01' W 093°46'4 7.5
2018-Feb-18 18:30N 29°59' W 093°49'4 7.2
2018-Feb-18 18:00N 29°56' W 093°52'4 7.3
2018-Feb-18 17:30N 29°53' W 093°55'3 6.5
2018-Feb-18 17:00N 29°51' W 093°57'2 5.0
2018-Feb-18 16:30N 29°49' W 093°59'3 5.4
2018-Feb-18 16:01N 29°47' W 094°01'3 6.1
2018-Feb-18 15:30N 29°45' W 094°04'3 6.5
2018-Feb-18 15:00N 29°43' W 094°07'3 6.2
2018-Feb-18 14:30N 29°41' W 094°10'3 5.2
2018-Feb-18 14:01N 29°41' W 094°13'1 1.5
2018-Feb-18 13:30N 29°40' W 094°14'2 4.6
2018-Feb-18 13:00N 29°39' W 094°16'2 4.5
2018-Feb-18 12:30N 29°38' W 094°18'0 0.3
2018-Feb-18 11:38N 29°38' W 094°18'0 0.0
2018-Feb-18 11:27N 29°38' W 094°18'0 0.0
2018-Feb-18 10:52N 29°38' W 094°18'0 0.0
2018-Feb-18 10:30N 29°38' W 094°18'0 0.0
2018-Feb-18 09:57N 29°38' W 094°18'0 0.0
2018-Feb-18 09:30N 29°38' W 094°18'0 0.0
2018-Feb-18 08:59N 29°38' W 094°18'1 1.6
2018-Feb-18 08:30N 29°38' W 094°19'2 4.5
2018-Feb-18 07:59N 29°36' W 094°22'2 3.9
2018-Feb-18 07:30N 29°36' W 094°24'1 2.9
2018-Feb-18 07:00N 29°35' W 094°25'24 4.5
2018-Feb-18 01:46N 29°27' W 094°51'2 7.9
2018-Feb-18 01:27N 29°30' W 094°52'4 8.2
2018-Feb-18 01:00N 29°33' W 094°54'4 8.5
2018-Feb-18 00:30N 29°36' W 094°57'4 8.4
2018-Feb-18 00:00N 29°40' W 094°59'4 7.7
2018-Feb-17 23:27N 29°44' W 095°02'4 7.8
2018-Feb-17 22:59N 29°46' W 095°05'1 0.9
2018-Feb-17 21:46N 29°47' W 095°04'2 5.4
2018-Feb-17 21:28N 29°46' W 095°05'0 0.3
2018-Feb-17 19:55N 29°45' W 095°06'2 3.6
2018-Feb-17 19:17N 29°47' W 095°04'0 0.0
2018-Feb-17 17:20N 29°47' W 095°04'0 0.5
2018-Feb-17 16:59N 29°47' W 095°04'3 7.0
2018-Feb-17 16:29N 29°44' W 095°07'1 0.1
2018-Feb-17 05:33N 29°44' W 095°08'0 0.0
2018-Feb-16 18:47N 29°44' W 095°08'0 0.0
2018-Feb-16 18:29N 29°44' W 095°08'0 0.1
2018-Feb-16 15:17N 29°44' W 095°08'0 0.6
2018-Feb-16 14:58N 29°44' W 095°08'12 2.8
2018-Feb-16 10:43N 29°37' W 094°57'12 2.7
2018-Feb-16 06:23N 29°44' W 095°08'0 0.0
2018-Feb-16 05:59N 29°44' W 095°08'0 0.0
2018-Feb-16 05:08N 29°44' W 095°08'0 0.0
2018-Feb-16 04:47N 29°44' W 095°08'0 0.0
2018-Feb-16 04:23N 29°44' W 095°08'0 0.0
2018-Feb-16 00:52N 29°44' W 095°08'0 0.1
2018-Feb-16 00:24N 29°44' W 095°08'0 0.0
2018-Feb-16 00:00N 29°44' W 095°08'9 3.8
2018-Feb-15 21:33N 29°40' W 094°58'1 7.2
2018-Feb-15 21:23N 29°39' W 094°58'11 7.3
2018-Feb-15 19:54N 29°29' W 094°52'3 5.9
2018-Feb-15 19:24N 29°27' W 094°50'6 1.9
2018-Feb-15 16:00N 29°26' W 094°43'0 0.0
2018-Feb-15 05:33N 29°26' W 094°43'0 0.0
2018-Feb-15 05:09N 29°26' W 094°43'0 0.0
2018-Feb-15 04:57N 29°26' W 094°43'0 0.0
2018-Feb-14 22:22N 29°26' W 094°43'0 0.7
2018-Feb-14 21:42N 29°25' W 094°43'0 2.2
2018-Feb-14 21:29N 29°26' W 094°43'0 0.0
2018-Feb-14 21:00N 29°26' W 094°43'0 0.0
2018-Feb-14 20:28N 29°26' W 094°43'0 0.0
2018-Feb-14 19:57N 29°26' W 094°43'0 0.1
2018-Feb-14 19:20N 29°26' W 094°43'0 0.1
2018-Feb-14 18:53N 29°26' W 094°43'0 0.0
2018-Feb-14 18:29N 29°26' W 094°43'0 0.2
2018-Feb-14 17:53N 29°26' W 094°43'0 0.1
2018-Feb-14 16:24N 29°26' W 094°43'0 0.0
2018-Feb-14 15:57N 29°26' W 094°43'0 0.0
2018-Feb-14 14:54N 29°26' W 094°43'9 0.5
2018-Feb-13 18:37N 29°30' W 094°34'1 5.6
2018-Feb-13 18:23N 29°30' W 094°32'2 4.9
2018-Feb-13 17:59N 29°31' W 094°30'4 5.7
2018-Feb-13 17:20N 29°34' W 094°27'2 5.6
2018-Feb-13 17:00N 29°34' W 094°25'3 4.2
2018-Feb-13 16:22N 29°36' W 094°22'2 5.5
2018-Feb-13 15:59N 29°37' W 094°20'3 5.7
2018-Feb-13 15:30N 29°38' W 094°18'3 5.6
2018-Feb-13 15:00N 29°40' W 094°15'3 5.5
2018-Feb-13 14:30N 29°41' W 094°12'3 5.1
2018-Feb-13 14:00N 29°42' W 094°09'3 5.4
2018-Feb-13 13:30N 29°43' W 094°07'3 5.4
2018-Feb-13 13:00N 29°45' W 094°04'3 5.6
2018-Feb-13 12:30N 29°47' W 094°02'3 5.5
2018-Feb-13 12:00N 29°49' W 093°60'3 5.1
2018-Feb-13 11:30N 29°50' W 093°57'3 6.3
2018-Feb-13 11:00N 29°53' W 093°55'3 6.7
2018-Feb-13 10:30N 29°55' W 093°53'3 6.4
2018-Feb-13 10:00N 29°58' W 093°51'3 5.5
2018-Feb-13 09:30N 29°59' W 093°48'3 7.0
2018-Feb-13 09:00N 30°01' W 093°45'3 6.2
2018-Feb-13 08:30N 30°03' W 093°42'3 6.1
2018-Feb-13 07:59N 30°04' W 093°39'3 5.8
2018-Feb-13 07:27N 30°04' W 093°35'2 5.3
2018-Feb-13 07:00N 30°04' W 093°32'3 5.5
2018-Feb-13 06:30N 30°04' W 093°29'3 5.5
2018-Feb-13 06:00N 30°04' W 093°26'3 5.4
2018-Feb-13 05:28N 30°04' W 093°23'2 3.9
2018-Feb-13 05:00N 30°04' W 093°21'3 5.1
2018-Feb-13 04:30N 30°06' W 093°19'2 3.2
2018-Feb-13 03:58N 30°05' W 093°17'1 2.3
2018-Feb-13 03:30N 30°04' W 093°16'0 0.8
2018-Feb-13 03:00N 30°04' W 093°16'1 2.4
2018-Feb-13 02:30N 30°03' W 093°16'2 4.9
2018-Feb-13 02:00N 30°01' W 093°14'2 3.2
2018-Feb-13 01:30N 29°60' W 093°13'2 4.0
2018-Feb-13 01:00N 29°58' W 093°11'3 5.3
2018-Feb-13 00:30N 29°56' W 093°10'3 5.5
2018-Feb-13 00:00N 29°56' W 093°06'39 4.8
2018-Feb-12 15:55N 29°51' W 092°22'2 4.0
2018-Feb-12 15:30N 29°51' W 092°20'1 2.8
2018-Feb-12 14:58N 29°50' W 092°18'2 3.8
2018-Feb-12 14:30N 29°49' W 092°17'3 5.2
2018-Feb-12 14:00N 29°48' W 092°14'2 3.8
2018-Feb-12 13:30N 29°47' W 092°12'2 4.4
2018-Feb-12 13:00N 29°47' W 092°10'2 4.7
2018-Feb-12 12:30N 29°47' W 092°07'2 4.6
2018-Feb-12 12:00N 29°48' W 092°05'2 4.2
2018-Feb-12 11:30N 29°49' W 092°02'2 4.5
2018-Feb-12 10:59N 29°50' W 091°60'55 4.5
2018-Feb-11 22:43N 29°36' W 090°58'1 5.1
2018-Feb-11 22:27N 29°35' W 090°58'2 5.4
2018-Feb-11 22:00N 29°34' W 090°55'3 5.6
2018-Feb-11 21:27N 29°32' W 090°52'2 5.5
2018-Feb-11 21:00N 29°32' W 090°49'3 5.3
2018-Feb-11 20:30N 29°32' W 090°46'2 4.5
2018-Feb-11 20:00N 29°34' W 090°44'1 2.9
2018-Feb-11 19:30N 29°35' W 090°43'1 2.1
2018-Feb-11 19:00N 29°36' W 090°43'1 2.9
2018-Feb-11 18:30N 29°37' W 090°42'2 4.2
2018-Feb-11 18:00N 29°36' W 090°40'3 5.1
2018-Feb-11 17:30N 29°35' W 090°37'2 4.3
2018-Feb-11 16:57N 29°34' W 090°34'2 4.9
2018-Feb-11 16:28N 29°34' W 090°32'5 5.3
2018-Feb-11 15:31N 29°33' W 090°26'0 5.4
2018-Feb-11 15:30N 29°33' W 090°26'  
Track history (hours):
 
Tides and Currents Weather Stations Pressure Air Temp Water Temp Dewpoint Dewpoint Depression Visibility Wind Speed Wind Dir Waves Ship Positions

Llano

Owner: Kirby Inland Marine LP, Houton, TX. More information available from US FCC via Universal Licensing System and Coast Guard Vessel Documentation Center.

Last reported at 2018-Feb-19 00:00 UTC. Time now 2018-Feb-19 00:10 UTC.
Position N 30°06' W 093°18'.

Length 118 m; draft 3.5 m.

Type: . MMSI: 367506740.

Date/timePositionNaut miles runAvg speedWind from/ knotsBaromVisibWave heightAir tempDewpointWater temp
2018-Feb-19 00:00N 30°06' W 093°18'0 0.1
2018-Feb-18 23:30N 30°06' W 093°18'0 0.1
2018-Feb-18 23:00N 30°06' W 093°18'2 3.2
2018-Feb-18 22:30N 30°05' W 093°20'3 5.2
2018-Feb-18 22:00N 30°04' W 093°22'4 7.2
2018-Feb-18 21:30N 30°04' W 093°26'3 6.8
2018-Feb-18 21:00N 30°04' W 093°30'4 7.1
2018-Feb-18 20:30N 30°04' W 093°34'3 6.8
2018-Feb-18 20:00N 30°04' W 093°38'4 7.5
2018-Feb-18 19:30N 30°03' W 093°43'4 7.4
2018-Feb-18 19:00N 30°01' W 093°46'4 7.5
2018-Feb-18 18:30N 29°59' W 093°49'4 7.2
2018-Feb-18 18:00N 29°56' W 093°52'4 7.3
2018-Feb-18 17:30N 29°53' W 093°55'3 6.5
2018-Feb-18 17:00N 29°51' W 093°57'2 5.0
2018-Feb-18 16:30N 29°49' W 093°59'3 5.4
2018-Feb-18 16:01N 29°47' W 094°01'3 6.1
2018-Feb-18 15:30N 29°45' W 094°04'3 6.5
2018-Feb-18 15:00N 29°43' W 094°07'3 6.2
2018-Feb-18 14:30N 29°41' W 094°10'3 5.2
2018-Feb-18 14:01N 29°41' W 094°13'1 1.5
2018-Feb-18 13:30N 29°40' W 094°14'2 4.6
2018-Feb-18 13:00N 29°39' W 094°16'2 4.5
2018-Feb-18 12:30N 29°38' W 094°18'0 0.3
2018-Feb-18 11:38N 29°38' W 094°18'0 0.0
2018-Feb-18 11:27N 29°38' W 094°18'0 0.0
2018-Feb-18 10:52N 29°38' W 094°18'0 0.0
2018-Feb-18 10:30N 29°38' W 094°18'0 0.0
2018-Feb-18 09:57N 29°38' W 094°18'0 0.0
2018-Feb-18 09:30N 29°38' W 094°18'0 0.0
2018-Feb-18 08:59N 29°38' W 094°18'1 1.6
2018-Feb-18 08:30N 29°38' W 094°19'2 4.5
2018-Feb-18 07:59N 29°36' W 094°22'2 3.9
2018-Feb-18 07:30N 29°36' W 094°24'1 2.9
2018-Feb-18 07:00N 29°35' W 094°25'24 4.5
2018-Feb-18 01:46N 29°27' W 094°51'2 7.9
2018-Feb-18 01:27N 29°30' W 094°52'4 8.2
2018-Feb-18 01:00N 29°33' W 094°54'4 8.5
2018-Feb-18 00:30N 29°36' W 094°57'4 8.4
2018-Feb-18 00:00N 29°40' W 094°59'4 7.7
2018-Feb-17 23:27N 29°44' W 095°02'4 7.8
2018-Feb-17 22:59N 29°46' W 095°05'1 0.9
2018-Feb-17 21:46N 29°47' W 095°04'2 5.4
2018-Feb-17 21:28N 29°46' W 095°05'0 0.3
2018-Feb-17 19:55N 29°45' W 095°06'2 3.6
2018-Feb-17 19:17N 29°47' W 095°04'0 0.0
2018-Feb-17 17:20N 29°47' W 095°04'0 0.5
2018-Feb-17 16:59N 29°47' W 095°04'3 7.0
2018-Feb-17 16:29N 29°44' W 095°07'1 0.1
2018-Feb-17 05:33N 29°44' W 095°08'0 0.0
2018-Feb-16 18:47N 29°44' W 095°08'0 0.0
2018-Feb-16 18:29N 29°44' W 095°08'0 0.1
2018-Feb-16 15:17N 29°44' W 095°08'0 0.6
2018-Feb-16 14:58N 29°44' W 095°08'12 2.8
2018-Feb-16 10:43N 29°37' W 094°57'12 2.7
2018-Feb-16 06:23N 29°44' W 095°08'0 0.0
2018-Feb-16 05:59N 29°44' W 095°08'0 0.0
2018-Feb-16 05:08N 29°44' W 095°08'0 0.0
2018-Feb-16 04:47N 29°44' W 095°08'0 0.0
2018-Feb-16 04:23N 29°44' W 095°08'0 0.0
2018-Feb-16 00:52N 29°44' W 095°08'0 0.1
2018-Feb-16 00:24N 29°44' W 095°08'0 0.0
2018-Feb-16 00:00N 29°44' W 095°08'9 3.8
2018-Feb-15 21:33N 29°40' W 094°58'1 7.2
2018-Feb-15 21:23N 29°39' W 094°58'11 7.3
2018-Feb-15 19:54N 29°29' W 094°52'3 5.9
2018-Feb-15 19:24N 29°27' W 094°50'6 1.9
2018-Feb-15 16:00N 29°26' W 094°43'0 0.0
2018-Feb-15 05:33N 29°26' W 094°43'0 0.0
2018-Feb-15 05:09N 29°26' W 094°43'0 0.0
2018-Feb-15 04:57N 29°26' W 094°43'0 0.0
2018-Feb-14 22:22N 29°26' W 094°43'0 0.7
2018-Feb-14 21:42N 29°25' W 094°43'0 2.2
2018-Feb-14 21:29N 29°26' W 094°43'0 0.0
2018-Feb-14 21:00N 29°26' W 094°43'0 0.0
2018-Feb-14 20:28N 29°26' W 094°43'0 0.0
2018-Feb-14 19:57N 29°26' W 094°43'0 0.1
2018-Feb-14 19:20N 29°26' W 094°43'0 0.1
2018-Feb-14 18:53N 29°26' W 094°43'0 0.0
2018-Feb-14 18:29N 29°26' W 094°43'0 0.2
2018-Feb-14 17:53N 29°26' W 094°43'0 0.1
2018-Feb-14 16:24N 29°26' W 094°43'0 0.0
2018-Feb-14 15:57N 29°26' W 094°43'0 0.0
2018-Feb-14 14:54N 29°26' W 094°43'9 0.5
2018-Feb-13 18:37N 29°30' W 094°34'1 5.6
2018-Feb-13 18:23N 29°30' W 094°32'2 4.9
2018-Feb-13 17:59N 29°31' W 094°30'4 5.7
2018-Feb-13 17:20N 29°34' W 094°27'2 5.6
2018-Feb-13 17:00N 29°34' W 094°25'3 4.2
2018-Feb-13 16:22N 29°36' W 094°22'2 5.5
2018-Feb-13 15:59N 29°37' W 094°20'3 5.7
2018-Feb-13 15:30N 29°38' W 094°18'3 5.6
2018-Feb-13 15:00N 29°40' W 094°15'3 5.5
2018-Feb-13 14:30N 29°41' W 094°12'3 5.1
2018-Feb-13 14:00N 29°42' W 094°09'3 5.4
2018-Feb-13 13:30N 29°43' W 094°07'3 5.4
2018-Feb-13 13:00N 29°45' W 094°04'3 5.6
2018-Feb-13 12:30N 29°47' W 094°02'3 5.5
2018-Feb-13 12:00N 29°49' W 093°60'3 5.1
2018-Feb-13 11:30N 29°50' W 093°57'3 6.3
2018-Feb-13 11:00N 29°53' W 093°55'3 6.7
2018-Feb-13 10:30N 29°55' W 093°53'3 6.4
2018-Feb-13 10:00N 29°58' W 093°51'3 5.5
2018-Feb-13 09:30N 29°59' W 093°48'3 7.0
2018-Feb-13 09:00N 30°01' W 093°45'3 6.2
2018-Feb-13 08:30N 30°03' W 093°42'3 6.1
2018-Feb-13 07:59N 30°04' W 093°39'3 5.8
2018-Feb-13 07:27N 30°04' W 093°35'2 5.3
2018-Feb-13 07:00N 30°04' W 093°32'3 5.5
2018-Feb-13 06:30N 30°04' W 093°29'3 5.5
2018-Feb-13 06:00N 30°04' W 093°26'3 5.4
2018-Feb-13 05:28N 30°04' W 093°23'2 3.9
2018-Feb-13 05:00N 30°04' W 093°21'3 5.1
2018-Feb-13 04:30N 30°06' W 093°19'2 3.2
2018-Feb-13 03:58N 30°05' W 093°17'1 2.3
2018-Feb-13 03:30N 30°04' W 093°16'0 0.8
2018-Feb-13 03:00N 30°04' W 093°16'1 2.4
2018-Feb-13 02:30N 30°03' W 093°16'2 4.9
2018-Feb-13 02:00N 30°01' W 093°14'2 3.2
2018-Feb-13 01:30N 29°60' W 093°13'2 4.0
2018-Feb-13 01:00N 29°58' W 093°11'3 5.3
2018-Feb-13 00:30N 29°56' W 093°10'3 5.5
2018-Feb-13 00:00N 29°56' W 093°06'39 4.8
2018-Feb-12 15:55N 29°51' W 092°22'2 4.0
2018-Feb-12 15:30N 29°51' W 092°20'1 2.8
2018-Feb-12 14:58N 29°50' W 092°18'2 3.8
2018-Feb-12 14:30N 29°49' W 092°17'3 5.2
2018-Feb-12 14:00N 29°48' W 092°14'2 3.8
2018-Feb-12 13:30N 29°47' W 092°12'2 4.4
2018-Feb-12 13:00N 29°47' W 092°10'2 4.7
2018-Feb-12 12:30N 29°47' W 092°07'2 4.6
2018-Feb-12 12:00N 29°48' W 092°05'2 4.2
2018-Feb-12 11:30N 29°49' W 092°02'2 4.5
2018-Feb-12 10:59N 29°50' W 091°60'55 4.5
2018-Feb-11 22:43N 29°36' W 090°58'1 5.1
2018-Feb-11 22:27N 29°35' W 090°58'2 5.4
2018-Feb-11 22:00N 29°34' W 090°55'3 5.6
2018-Feb-11 21:27N 29°32' W 090°52'2 5.5
2018-Feb-11 21:00N 29°32' W 090°49'3 5.3
2018-Feb-11 20:30N 29°32' W 090°46'2 4.5
2018-Feb-11 20:00N 29°34' W 090°44'1 2.9
2018-Feb-11 19:30N 29°35' W 090°43'1 2.1
2018-Feb-11 19:00N 29°36' W 090°43'1 2.9
2018-Feb-11 18:30N 29°37' W 090°42'2 4.2
2018-Feb-11 18:00N 29°36' W 090°40'3 5.1
2018-Feb-11 17:30N 29°35' W 090°37'2 4.3
2018-Feb-11 16:57N 29°34' W 090°34'2 4.9
2018-Feb-11 16:28N 29°34' W 090°32'5 5.3
2018-Feb-11 15:31N 29°33' W 090°26'0 5.4
2018-Feb-11 15:30N 29°33' W 090°26'  

Dump ship's entire track history